PWSweather.com
Personal Weather Stations
Station Observations
SHAHALMS1
Eftra, Falkenberg, HA

EftraFalkenberg, HA

Lat: 56.85, Lon: 12.65

Elevation: 140

Station Type:

http://hem.passagen.se/risarp101

High Low Average
Temperature 74.5°F23.6°C 51.3°F10.7°C 64.2°F17.9°C
Dew Point 57.9°F14.4°C 46.1°F7.8°C 54.0°F12.2°C
Winds 9.6 mph 15.4 kmh Calm Calm 6.0 mph SSE9.7 kmh SSE
Wind Gusts 31.5 mph50.7 kmh -- 15.0 mph24.1 kmh
Humidity 88% 55% 71%
Pressure 30.07 in1018.3 mb 29.83 in1010.2 mb -
Precipitation 0.00 in0.0 mm - -
Hour Temp Dew Point Humidity Winds Wind Gusts Pressure Precip Precip Rate Daily Precip Total
12:00 AM 52.0°F11.1°C 46.3°F7.9°C 81% 0.4 mph E0.6 kmh E 5.0 mph8.0 kmh 30.07 in1018.3 mb 0.00 in0.0 mm 0.00 in0.0 mm 0.00 in0.0 mm
12:15 AM 51.8°F11.0°C 46.2°F7.9°C 81% 0.8 mph E1.3 kmh E 5.0 mph8.0 kmh 30.07 in1018.3 mb 0.00 in0.0 mm 0.00 in0.0 mm 0.00 in0.0 mm
12:30 AM 51.8°F11.0°C 46.5°F8.1°C 82% Calm Calm -- 30.07 in1018.3 mb 0.00 in0.0 mm 0.00 in0.0 mm 0.00 in0.0 mm
12:45 AM 51.6°F10.9°C 46.3°F7.9°C 82% 1.5 mph E2.4 kmh E 7.2 mph11.6 kmh 30.07 in1018.3 mb 0.00 in0.0 mm 0.00 in0.0 mm 0.00 in0.0 mm
01:00 AM 51.4°F10.8°C 46.1°F7.8°C 82% 6.2 mph ESE10.0 kmh ESE 10.4 mph16.7 kmh 30.07 in1018.3 mb 0.00 in0.0 mm 0.00 in0.0 mm 0.00 in0.0 mm
01:15 AM 51.4°F10.8°C 46.1°F7.8°C 82% 6.3 mph SE10.1 kmh SE 10.4 mph16.7 kmh 30.07 in1018.3 mb 0.00 in0.0 mm 0.00 in0.0 mm 0.00 in0.0 mm
01:30 AM 51.4°F10.8°C 46.1°F7.8°C 82% 4.6 mph SE7.4 kmh SE 10.4 mph16.7 kmh 30.07 in1018.3 mb 0.00 in0.0 mm 0.00 in0.0 mm 0.00 in0.0 mm
01:45 AM 51.3°F10.7°C 46.3°F7.9°C 83% 3.8 mph SE6.1 kmh SE 9.7 mph15.6 kmh 30.07 in1018.3 mb 0.00 in0.0 mm 0.00 in0.0 mm 0.00 in0.0 mm
02:00 AM 51.4°F10.8°C 46.4°F8.0°C 83% 6.0 mph SE9.7 kmh SE 9.7 mph15.6 kmh 30.07 in1018.3 mb 0.00 in0.0 mm 0.00 in0.0 mm 0.00 in0.0 mm
02:15 AM 51.8°F11.0°C 47.1°F8.4°C 84% 2.4 mph SE3.9 kmh SE 10.4 mph16.7 kmh 30.07 in1018.3 mb 0.00 in0.0 mm 0.00 in0.0 mm 0.00 in0.0 mm
02:30 AM 52.3°F11.3°C 47.6°F8.7°C 84% 1.6 mph SE2.6 kmh SE 6.8 mph10.9 kmh 30.07 in1018.3 mb 0.00 in0.0 mm 0.00 in0.0 mm 0.00 in0.0 mm
02:45 AM 52.7°F11.5°C 48.3°F9.1°C 85% 2.1 mph SE3.4 kmh SE 9.3 mph15.0 kmh 30.07 in1018.3 mb 0.00 in0.0 mm 0.00 in0.0 mm 0.00 in0.0 mm
03:00 AM 53.1°F11.7°C 48.7°F9.3°C 85% 5.1 mph SE8.2 kmh SE 10.0 mph16.1 kmh 30.07 in1018.3 mb 0.00 in0.0 mm 0.00 in0.0 mm 0.00 in0.0 mm
03:15 AM 53.4°F11.9°C 49.0°F9.4°C 85% 2.5 mph SE4.0 kmh SE 8.9 mph14.3 kmh 30.07 in1018.3 mb 0.00 in0.0 mm 0.00 in0.0 mm 0.00 in0.0 mm
03:30 AM 53.8°F12.1°C 49.4°F9.7°C 85% 3.6 mph ESE5.8 kmh ESE 8.6 mph13.8 kmh 30.07 in1018.3 mb 0.00 in0.0 mm 0.00 in0.0 mm 0.00 in0.0 mm
03:45 AM 54.0°F12.2°C 49.9°F9.9°C 86% 1.0 mph E1.6 kmh E 6.1 mph9.8 kmh 30.04 in1017.3 mb 0.00 in0.0 mm 0.00 in0.0 mm 0.00 in0.0 mm
04:00 AM 54.3°F12.4°C 50.2°F10.1°C 86% Calm Calm -- 30.04 in1017.3 mb 0.00 in0.0 mm 0.00 in0.0 mm 0.00 in0.0 mm
04:15 AM 54.5°F12.5°C 50.4°F10.2°C 86% 3.3 mph ESE5.3 kmh ESE 7.9 mph12.7 kmh 30.04 in1017.3 mb 0.00 in0.0 mm 0.00 in0.0 mm 0.00 in0.0 mm
04:30 AM 54.9°F12.7°C 51.1°F10.6°C 87% 3.2 mph E5.1 kmh E 8.6 mph13.8 kmh 30.04 in1017.3 mb 0.00 in0.0 mm 0.00 in0.0 mm 0.00 in0.0 mm
04:45 AM 55.0°F12.8°C 51.2°F10.7°C 87% 3.9 mph ESE6.3 kmh ESE 6.8 mph10.9 kmh 30.04 in1017.3 mb 0.00 in0.0 mm 0.00 in0.0 mm 0.00 in0.0 mm
05:00 AM 55.4°F13.0°C 51.6°F10.9°C 87% 1.3 mph E2.1 kmh E 6.4 mph10.3 kmh 30.04 in1017.3 mb 0.00 in0.0 mm 0.00 in0.0 mm 0.00 in0.0 mm
05:15 AM 56.1°F13.4°C 52.6°F11.4°C 88% 3.6 mph SE5.8 kmh SE 10.0 mph16.1 kmh 30.04 in1017.3 mb 0.00 in0.0 mm 0.00 in0.0 mm 0.00 in0.0 mm
05:30 AM 57.0°F13.9°C 53.5°F11.9°C 88% 4.6 mph SSE7.4 kmh SSE 12.9 mph20.8 kmh 30.01 in1016.3 mb 0.00 in0.0 mm 0.00 in0.0 mm 0.00 in0.0 mm
05:45 AM 57.7°F14.3°C 54.2°F12.3°C 88% 3.4 mph SSE5.5 kmh SSE 10.0 mph16.1 kmh 30.04 in1017.3 mb 0.00 in0.0 mm 0.00 in0.0 mm 0.00 in0.0 mm
06:00 AM 58.5°F14.7°C 54.6°F12.6°C 87% 5.0 mph S8.0 kmh S 12.9 mph20.8 kmh 30.01 in1016.3 mb 0.00 in0.0 mm 0.00 in0.0 mm 0.00 in0.0 mm
06:15 AM 58.8°F14.9°C 54.6°F12.6°C 86% 4.9 mph S7.9 kmh S 13.6 mph21.9 kmh 30.04 in1017.3 mb 0.00 in0.0 mm 0.00 in0.0 mm 0.00 in0.0 mm
06:30 AM 59.5°F15.3°C 55.0°F12.8°C 85% 4.5 mph SSE7.2 kmh SSE 9.7 mph15.6 kmh 30.04 in1017.3 mb 0.00 in0.0 mm 0.00 in0.0 mm 0.00 in0.0 mm
06:45 AM 60.1°F15.6°C 55.6°F13.1°C 85% 6.1 mph S9.8 kmh S 13.6 mph21.9 kmh 30.04 in1017.3 mb 0.00 in0.0 mm 0.00 in0.0 mm 0.00 in0.0 mm
07:00 AM 60.8°F16.0°C 55.9°F13.3°C 84% 5.4 mph S8.7 kmh S 15.7 mph25.3 kmh 30.04 in1017.3 mb 0.00 in0.0 mm 0.00 in0.0 mm 0.00 in0.0 mm
07:15 AM 61.7°F16.5°C 56.8°F13.8°C 84% 5.6 mph SSE9.0 kmh SSE 15.7 mph25.3 kmh 30.04 in1017.3 mb 0.00 in0.0 mm 0.00 in0.0 mm 0.00 in0.0 mm
07:30 AM 62.6°F17.0°C 57.0°F13.9°C 82% 6.2 mph S10.0 kmh S 17.2 mph27.7 kmh 30.04 in1017.3 mb 0.00 in0.0 mm 0.00 in0.0 mm 0.00 in0.0 mm
07:45 AM 62.8°F17.1°C 56.2°F13.4°C 79% 7.5 mph S12.1 kmh S 15.7 mph25.3 kmh 30.04 in1017.3 mb 0.00 in0.0 mm 0.00 in0.0 mm 0.00 in0.0 mm
08:00 AM 63.5°F17.5°C 56.5°F13.6°C 78% 6.1 mph S9.8 kmh S 15.7 mph25.3 kmh 30.04 in1017.3 mb 0.00 in0.0 mm 0.00 in0.0 mm 0.00 in0.0 mm
08:15 AM 64.4°F18.0°C 57.0°F13.9°C 77% 5.4 mph S8.7 kmh S 15.7 mph25.3 kmh 30.04 in1017.3 mb 0.00 in0.0 mm 0.00 in0.0 mm 0.00 in0.0 mm
08:30 AM 65.3°F18.5°C 57.9°F14.4°C 77% 7.4 mph S11.9 kmh S 18.3 mph29.5 kmh 30.01 in1016.3 mb 0.00 in0.0 mm 0.00 in0.0 mm 0.00 in0.0 mm
08:46 AM 66.0°F18.9°C 57.1°F13.9°C 73% 6.6 mph SSW10.6 kmh SSW 15.7 mph25.3 kmh 30.01 in1016.3 mb 0.00 in0.0 mm 0.00 in0.0 mm 0.00 in0.0 mm
09:00 AM 66.4°F19.1°C 56.3°F13.5°C 70% 7.2 mph S11.6 kmh S 19.7 mph31.7 kmh 30.04 in1017.3 mb 0.00 in0.0 mm 0.00 in0.0 mm 0.00 in0.0 mm
09:15 AM 66.9°F19.4°C 56.8°F13.8°C 70% 7.5 mph S12.1 kmh S 16.8 mph27.0 kmh 30.01 in1016.3 mb 0.00 in0.0 mm 0.00 in0.0 mm 0.00 in0.0 mm
09:30 AM 67.3°F19.6°C 56.4°F13.6°C 68% 6.7 mph SSW10.8 kmh SSW 13.6 mph21.9 kmh 30.01 in1016.3 mb 0.00 in0.0 mm 0.00 in0.0 mm 0.00 in0.0 mm
09:45 AM 67.6°F19.8°C 56.7°F13.7°C 68% 9.2 mph S14.8 kmh S 22.9 mph36.9 kmh 30.01 in1016.3 mb 0.00 in0.0 mm 0.00 in0.0 mm 0.00 in0.0 mm
10:00 AM 68.2°F20.1°C 56.8°F13.8°C 67% 6.3 mph S10.1 kmh S 21.1 mph34.0 kmh 30.01 in1016.3 mb 0.00 in0.0 mm 0.00 in0.0 mm 0.00 in0.0 mm
10:15 AM 68.4°F20.2°C 55.7°F13.2°C 64% 8.8 mph S14.2 kmh S 19.7 mph31.7 kmh 30.01 in1016.3 mb 0.00 in0.0 mm 0.00 in0.0 mm 0.00 in0.0 mm
10:30 AM 69.1°F20.6°C 56.8°F13.8°C 65% 7.9 mph S12.7 kmh S 17.5 mph28.2 kmh 29.98 in1015.2 mb 0.00 in0.0 mm 0.00 in0.0 mm 0.00 in0.0 mm
10:45 AM 69.6°F20.9°C 56.5°F13.6°C 63% 8.7 mph S14.0 kmh S 24.7 mph39.8 kmh 29.98 in1015.2 mb 0.00 in0.0 mm 0.00 in0.0 mm 0.00 in0.0 mm
11:00 AM 70.3°F21.3°C 55.8°F13.2°C 60% 8.2 mph S13.2 kmh S 24.7 mph39.8 kmh 29.98 in1015.2 mb 0.00 in0.0 mm 0.00 in0.0 mm 0.00 in0.0 mm
11:15 AM 70.9°F21.6°C 54.9°F12.7°C 57% 9.0 mph S14.5 kmh S 20.8 mph33.5 kmh 29.98 in1015.2 mb 0.00 in0.0 mm 0.00 in0.0 mm 0.00 in0.0 mm
11:30 AM 71.2°F21.8°C 55.7°F13.2°C 58% 7.5 mph S12.1 kmh S 20.0 mph32.2 kmh 29.98 in1015.2 mb 0.00 in0.0 mm 0.00 in0.0 mm 0.00 in0.0 mm
11:45 AM 71.2°F21.8°C 56.2°F13.4°C 59% 6.4 mph S10.3 kmh S 19.3 mph31.1 kmh 29.98 in1015.2 mb 0.00 in0.0 mm 0.00 in0.0 mm 0.00 in0.0 mm
12:00 PM 70.9°F21.6°C 55.4°F13.0°C 58% 7.0 mph S11.3 kmh S 13.6 mph21.9 kmh 30.01 in1016.3 mb 0.00 in0.0 mm 0.00 in0.0 mm 0.00 in0.0 mm
12:15 PM 70.9°F21.6°C 55.8°F13.2°C 59% 6.5 mph S10.5 kmh S 15.0 mph24.1 kmh 29.98 in1015.2 mb 0.00 in0.0 mm 0.00 in0.0 mm 0.00 in0.0 mm
12:30 PM 71.2°F21.8°C 55.7°F13.2°C 58% 7.3 mph S11.7 kmh S 19.7 mph31.7 kmh 29.98 in1015.2 mb 0.00 in0.0 mm 0.00 in0.0 mm 0.00 in0.0 mm
12:45 PM 72.0°F22.2°C 56.4°F13.6°C 58% 5.6 mph S9.0 kmh S 14.0 mph22.5 kmh 29.98 in1015.2 mb 0.00 in0.0 mm 0.00 in0.0 mm 0.00 in0.0 mm
01:00 PM 72.5°F22.5°C 56.9°F13.8°C 58% 4.8 mph S7.7 kmh S 13.6 mph21.9 kmh 29.98 in1015.2 mb 0.00 in0.0 mm 0.00 in0.0 mm 0.00 in0.0 mm
01:15 PM 72.1°F22.3°C 56.5°F13.6°C 58% 5.0 mph S8.0 kmh S 10.4 mph16.7 kmh 29.98 in1015.2 mb 0.00 in0.0 mm 0.00 in0.0 mm 0.00 in0.0 mm
01:30 PM 71.8°F22.1°C 56.2°F13.4°C 58% 5.8 mph S9.3 kmh S 15.7 mph25.3 kmh 29.98 in1015.2 mb 0.00 in0.0 mm 0.00 in0.0 mm 0.00 in0.0 mm
01:45 PM 72.0°F22.2°C 55.9°F13.3°C 57% 6.0 mph S9.7 kmh S 16.5 mph26.6 kmh 29.98 in1015.2 mb 0.00 in0.0 mm 0.00 in0.0 mm 0.00 in0.0 mm
02:00 PM 73.0°F22.8°C 56.9°F13.8°C 57% 7.0 mph S11.3 kmh S 24.3 mph39.1 kmh 29.98 in1015.2 mb 0.00 in0.0 mm 0.00 in0.0 mm 0.00 in0.0 mm
02:15 PM 73.0°F22.8°C 56.4°F13.6°C 56% 7.4 mph S11.9 kmh S 15.0 mph24.1 kmh 29.95 in1014.2 mb 0.00 in0.0 mm 0.00 in0.0 mm 0.00 in0.0 mm
02:30 PM 73.2°F22.9°C 56.1°F13.4°C 55% 9.6 mph S15.4 kmh S 21.1 mph34.0 kmh 29.95 in1014.2 mb 0.00 in0.0 mm 0.00 in0.0 mm 0.00 in0.0 mm
02:45 PM 73.9°F23.3°C 57.3°F14.1°C 56% 7.2 mph SSW11.6 kmh SSW 19.7 mph31.7 kmh 29.95 in1014.2 mb 0.00 in0.0 mm 0.00 in0.0 mm 0.00 in0.0 mm
03:00 PM 74.5°F23.6°C 57.3°F14.1°C 55% 6.3 mph S10.1 kmh S 13.6 mph21.9 kmh 29.95 in1014.2 mb 0.00 in0.0 mm 0.00 in0.0 mm 0.00 in0.0 mm
03:15 PM 74.5°F23.6°C 57.3°F14.1°C 55% 8.4 mph S13.5 kmh S 31.5 mph50.7 kmh 29.95 in1014.2 mb 0.00 in0.0 mm 0.00 in0.0 mm 0.00 in0.0 mm
03:30 PM 73.9°F23.3°C 56.8°F13.8°C 55% 7.7 mph S12.4 kmh S 17.5 mph28.2 kmh 29.95 in1014.2 mb 0.00 in0.0 mm 0.00 in0.0 mm 0.00 in0.0 mm
03:45 PM 73.9°F23.3°C 56.8°F13.8°C 55% 7.5 mph SSW12.1 kmh SSW 16.1 mph25.9 kmh 29.95 in1014.2 mb 0.00 in0.0 mm 0.00 in0.0 mm 0.00 in0.0 mm
04:00 PM 73.6°F23.1°C 56.9°F13.8°C 56% 5.1 mph S8.2 kmh S 11.8 mph19.0 kmh 29.92 in1013.2 mb 0.00 in0.0 mm 0.00 in0.0 mm 0.00 in0.0 mm
04:15 PM 72.9°F22.7°C 56.2°F13.4°C 56% 7.3 mph S11.7 kmh S 16.8 mph27.0 kmh 29.92 in1013.2 mb 0.00 in0.0 mm 0.00 in0.0 mm 0.00 in0.0 mm
04:30 PM 72.5°F22.5°C 55.9°F13.3°C 56% 5.4 mph S8.7 kmh S 14.0 mph22.5 kmh 29.92 in1013.2 mb 0.00 in0.0 mm 0.00 in0.0 mm 0.00 in0.0 mm
04:45 PM 72.1°F22.3°C 56.1°F13.4°C 57% 6.0 mph S9.7 kmh S 17.5 mph28.2 kmh 29.92 in1013.2 mb 0.00 in0.0 mm 0.00 in0.0 mm 0.00 in0.0 mm
05:00 PM 71.4°F21.9°C 55.9°F13.3°C 58% 5.6 mph S9.0 kmh S 19.0 mph30.6 kmh 29.92 in1013.2 mb 0.00 in0.0 mm 0.00 in0.0 mm 0.00 in0.0 mm
05:15 PM 70.9°F21.6°C 55.4°F13.0°C 58% 6.6 mph S10.6 kmh S 12.5 mph20.1 kmh 29.95 in1014.2 mb 0.00 in0.0 mm 0.00 in0.0 mm 0.00 in0.0 mm
05:30 PM 70.0°F21.1°C 54.5°F12.5°C 58% 6.6 mph S10.6 kmh S 17.2 mph27.7 kmh 29.89 in1012.2 mb 0.00 in0.0 mm 0.00 in0.0 mm 0.00 in0.0 mm
05:45 PM 69.6°F20.9°C 54.2°F12.3°C 58% 7.7 mph S12.4 kmh S 17.5 mph28.2 kmh 29.92 in1013.2 mb 0.00 in0.0 mm 0.00 in0.0 mm 0.00 in0.0 mm
06:00 PM 69.3°F20.7°C 53.8°F12.1°C 58% 7.8 mph S12.6 kmh S 23.6 mph38.0 kmh 29.92 in1013.2 mb 0.00 in0.0 mm 0.00 in0.0 mm 0.00 in0.0 mm
06:15 PM 68.9°F20.5°C 53.5°F11.9°C 58% 8.0 mph S12.9 kmh S 19.3 mph31.1 kmh 29.92 in1013.2 mb 0.00 in0.0 mm 0.00 in0.0 mm 0.00 in0.0 mm
06:30 PM 68.5°F20.3°C 53.6°F12.0°C 59% 7.1 mph S11.4 kmh S 19.7 mph31.7 kmh 29.92 in1013.2 mb 0.00 in0.0 mm 0.00 in0.0 mm 0.00 in0.0 mm
06:45 PM 68.0°F20.0°C 53.1°F11.7°C 59% 7.1 mph S11.4 kmh S 17.2 mph27.7 kmh 29.92 in1013.2 mb 0.00 in0.0 mm 0.00 in0.0 mm 0.00 in0.0 mm
07:00 PM 67.5°F19.7°C 53.5°F11.9°C 61% 7.1 mph S11.4 kmh S 20.8 mph33.5 kmh 29.92 in1013.2 mb 0.00 in0.0 mm 0.00 in0.0 mm 0.00 in0.0 mm
07:15 PM 66.9°F19.4°C 53.5°F11.9°C 62% 6.4 mph SSE10.3 kmh SSE 20.0 mph32.2 kmh 29.92 in1013.2 mb 0.00 in0.0 mm 0.00 in0.0 mm 0.00 in0.0 mm
07:30 PM 66.6°F19.2°C 53.1°F11.7°C 62% 7.0 mph S11.3 kmh S 17.2 mph27.7 kmh 29.92 in1013.2 mb 0.00 in0.0 mm 0.00 in0.0 mm 0.00 in0.0 mm
07:45 PM 66.2°F19.0°C 53.2°F11.8°C 63% 5.7 mph S9.2 kmh S 16.1 mph25.9 kmh 29.92 in1013.2 mb 0.00 in0.0 mm 0.00 in0.0 mm 0.00 in0.0 mm
08:00 PM 65.8°F18.8°C 53.7°F12.1°C 65% 6.8 mph S10.9 kmh S 17.5 mph28.2 kmh 29.92 in1013.2 mb 0.00 in0.0 mm 0.00 in0.0 mm 0.00 in0.0 mm
08:15 PM 65.7°F18.7°C 54.0°F12.2°C 66% 7.1 mph S11.4 kmh S 18.3 mph29.5 kmh 29.89 in1012.2 mb 0.00 in0.0 mm 0.00 in0.0 mm 0.00 in0.0 mm
08:30 PM 65.7°F18.7°C 54.4°F12.4°C 67% 7.4 mph S11.9 kmh S 15.0 mph24.1 kmh 29.89 in1012.2 mb 0.00 in0.0 mm 0.00 in0.0 mm 0.00 in0.0 mm
08:45 PM 65.8°F18.8°C 55.0°F12.8°C 68% 6.0 mph S9.7 kmh S 14.0 mph22.5 kmh 29.86 in1011.2 mb 0.00 in0.0 mm 0.00 in0.0 mm 0.00 in0.0 mm
09:00 PM 66.0°F18.9°C 56.0°F13.3°C 70% 7.6 mph S12.2 kmh S 19.3 mph31.1 kmh 29.86 in1011.2 mb 0.00 in0.0 mm 0.00 in0.0 mm 0.00 in0.0 mm
09:15 PM 66.0°F18.9°C 56.3°F13.5°C 71% 7.4 mph S11.9 kmh S 16.5 mph26.6 kmh 29.86 in1011.2 mb 0.00 in0.0 mm 0.00 in0.0 mm 0.00 in0.0 mm
09:30 PM 65.3°F18.5°C 55.7°F13.2°C 71% 5.4 mph S8.7 kmh S 20.8 mph33.5 kmh 29.86 in1011.2 mb 0.00 in0.0 mm 0.00 in0.0 mm 0.00 in0.0 mm
09:45 PM 64.9°F18.3°C 55.7°F13.2°C 72% 6.0 mph SSE9.7 kmh SSE 15.7 mph25.3 kmh 29.86 in1011.2 mb 0.00 in0.0 mm 0.00 in0.0 mm 0.00 in0.0 mm
10:00 PM 64.6°F18.1°C 55.7°F13.2°C 73% 6.6 mph S10.6 kmh S 17.9 mph28.8 kmh 29.86 in1011.2 mb 0.00 in0.0 mm 0.00 in0.0 mm 0.00 in0.0 mm
10:15 PM 64.2°F17.9°C 55.8°F13.2°C 74% 6.2 mph S10.0 kmh S 20.4 mph32.8 kmh 29.86 in1011.2 mb 0.00 in0.0 mm 0.00 in0.0 mm 0.00 in0.0 mm
10:30 PM 64.0°F17.8°C 55.6°F13.1°C 74% 8.6 mph S13.8 kmh S 19.7 mph31.7 kmh 29.86 in1011.2 mb 0.00 in0.0 mm 0.00 in0.0 mm 0.00 in0.0 mm
10:45 PM 63.7°F17.6°C 55.6°F13.1°C 75% 5.8 mph S9.3 kmh S 14.0 mph22.5 kmh 29.86 in1011.2 mb 0.00 in0.0 mm 0.00 in0.0 mm 0.00 in0.0 mm
11:00 PM 63.5°F17.5°C 55.4°F13.0°C 75% 7.4 mph S11.9 kmh S 20.0 mph32.2 kmh 29.86 in1011.2 mb 0.00 in0.0 mm 0.00 in0.0 mm 0.00 in0.0 mm
11:15 PM 63.5°F17.5°C 55.8°F13.2°C 76% 6.8 mph S10.9 kmh S 17.2 mph27.7 kmh 29.86 in1011.2 mb 0.00 in0.0 mm 0.00 in0.0 mm 0.00 in0.0 mm
11:30 PM 63.3°F17.4°C 55.6°F13.1°C 76% 7.4 mph S11.9 kmh S 20.0 mph32.2 kmh 29.83 in1010.2 mb 0.00 in0.0 mm 0.00 in0.0 mm 0.00 in0.0 mm
11:45 PM 63.1°F17.3°C 55.8°F13.2°C 77% 7.2 mph SSE11.6 kmh SSE 21.1 mph34.0 kmh 29.83 in1010.2 mb 0.00 in0.0 mm 0.00 in0.0 mm 0.00 in0.0 mm